sensor_id;sensor_type;location;lat;lon;timestamp;temperature;humidity
21193;DHT22;10754;51.106;7.164;2023-09-07T00:00:22;22.90;1.00
21193;DHT22;10754;51.106;7.164;2023-09-07T00:02:48;22.90;1.00
21193;DHT22;10754;51.106;7.164;2023-09-07T00:05:13;22.90;1.00
21193;DHT22;10754;51.106;7.164;2023-09-07T00:07:39;23.00;1.00
21193;DHT22;10754;51.106;7.164;2023-09-07T00:10:05;23.00;1.00
21193;DHT22;10754;51.106;7.164;2023-09-07T00:12:31;23.00;1.00
21193;DHT22;10754;51.106;7.164;2023-09-07T00:14:57;23.10;1.00
21193;DHT22;10754;51.106;7.164;2023-09-07T00:17:23;23.10;1.00
21193;DHT22;10754;51.106;7.164;2023-09-07T00:19:49;23.10;1.00
21193;DHT22;10754;51.106;7.164;2023-09-07T00:22:16;23.20;99.90
21193;DHT22;10754;51.106;7.164;2023-09-07T00:24:43;23.10;99.90
21193;DHT22;10754;51.106;7.164;2023-09-07T00:27:08;23.10;99.90
21193;DHT22;10754;51.106;7.164;2023-09-07T00:29:37;23.10;99.90
21193;DHT22;10754;51.106;7.164;2023-09-07T00:32:03;23.10;99.90
21193;DHT22;10754;51.106;7.164;2023-09-07T00:34:29;23.10;99.90
21193;DHT22;10754;51.106;7.164;2023-09-07T00:36:54;23.10;99.90
21193;DHT22;10754;51.106;7.164;2023-09-07T00:39:20;23.10;99.90
21193;DHT22;10754;51.106;7.164;2023-09-07T00:41:46;23.10;99.90
21193;DHT22;10754;51.106;7.164;2023-09-07T00:44:11;23.10;99.90
21193;DHT22;10754;51.106;7.164;2023-09-07T00:46:37;23.00;99.90
21193;DHT22;10754;51.106;7.164;2023-09-07T00:49:02;23.00;99.90
21193;DHT22;10754;51.106;7.164;2023-09-07T00:51:30;23.00;99.90
21193;DHT22;10754;51.106;7.164;2023-09-07T00:53:56;23.00;99.90
21193;DHT22;10754;51.106;7.164;2023-09-07T00:56:21;23.00;99.90
21193;DHT22;10754;51.106;7.164;2023-09-07T00:58:47;23.00;99.90
21193;DHT22;10754;51.106;7.164;2023-09-07T01:01:13;23.00;99.90
21193;DHT22;10754;51.106;7.164;2023-09-07T01:03:39;23.00;99.90
21193;DHT22;10754;51.106;7.164;2023-09-07T01:06:13;23.00;99.90
21193;DHT22;10754;51.106;7.164;2023-09-07T01:08:49;23.00;99.90
21193;DHT22;10754;51.106;7.164;2023-09-07T01:11:16;23.00;99.90
21193;DHT22;10754;51.106;7.164;2023-09-07T01:13:42;22.90;99.90
21193;DHT22;10754;51.106;7.164;2023-09-07T01:16:08;22.90;99.90
21193;DHT22;10754;51.106;7.164;2023-09-07T01:18:35;23.00;99.90
21193;DHT22;10754;51.106;7.164;2023-09-07T01:21:05;23.00;99.90
21193;DHT22;10754;51.106;7.164;2023-09-07T01:23:34;22.90;99.90
21193;DHT22;10754;51.106;7.164;2023-09-07T01:26:00;23.00;99.90
21193;DHT22;10754;51.106;7.164;2023-09-07T01:28:25;23.00;99.90
21193;DHT22;10754;51.106;7.164;2023-09-07T01:30:51;22.90;99.90
21193;DHT22;10754;51.106;7.164;2023-09-07T01:33:17;23.00;99.90
21193;DHT22;10754;51.106;7.164;2023-09-07T01:35:43;22.90;99.90
21193;DHT22;10754;51.106;7.164;2023-09-07T01:38:08;22.90;99.90
21193;DHT22;10754;51.106;7.164;2023-09-07T01:40:34;22.90;99.90
21193;DHT22;10754;51.106;7.164;2023-09-07T01:43:00;22.90;99.90
21193;DHT22;10754;51.106;7.164;2023-09-07T01:45:26;23.00;1.00
21193;DHT22;10754;51.106;7.164;2023-09-07T01:47:52;22.90;99.90
21193;DHT22;10754;51.106;7.164;2023-09-07T01:50:17;22.90;99.90
21193;DHT22;10754;51.106;7.164;2023-09-07T01:52:46;22.90;99.90
21193;DHT22;10754;51.106;7.164;2023-09-07T01:55:13;22.90;99.90
21193;DHT22;10754;51.106;7.164;2023-09-07T01:57:39;22.90;99.90
21193;DHT22;10754;51.106;7.164;2023-09-07T02:00:05;22.80;99.90
21193;DHT22;10754;51.106;7.164;2023-09-07T02:02:31;22.90;99.90
21193;DHT22;10754;51.106;7.164;2023-09-07T02:04:56;22.90;99.90
21193;DHT22;10754;51.106;7.164;2023-09-07T02:07:22;23.00;99.90
21193;DHT22;10754;51.106;7.164;2023-09-07T02:09:47;23.10;99.90
21193;DHT22;10754;51.106;7.164;2023-09-07T02:12:13;23.00;99.90
21193;DHT22;10754;51.106;7.164;2023-09-07T02:14:39;23.10;99.90
21193;DHT22;10754;51.106;7.164;2023-09-07T02:17:04;23.00;99.90
21193;DHT22;10754;51.106;7.164;2023-09-07T02:19:30;22.90;99.90
21193;DHT22;10754;51.106;7.164;2023-09-07T02:21:55;22.90;99.90
21193;DHT22;10754;51.106;7.164;2023-09-07T02:24:21;22.70;99.90
21193;DHT22;10754;51.106;7.164;2023-09-07T02:26:47;22.70;99.90
21193;DHT22;10754;51.106;7.164;2023-09-07T02:29:12;22.80;1.40
21193;DHT22;10754;51.106;7.164;2023-09-07T02:31:39;22.60;99.90
21193;DHT22;10754;51.106;7.164;2023-09-07T02:34:05;22.60;99.90
21193;DHT22;10754;51.106;7.164;2023-09-07T02:36:30;22.60;99.90
21193;DHT22;10754;51.106;7.164;2023-09-07T02:38:56;22.60;99.90
21193;DHT22;10754;51.106;7.164;2023-09-07T02:41:21;22.60;99.90
21193;DHT22;10754;51.106;7.164;2023-09-07T02:43:47;22.60;99.90
21193;DHT22;10754;51.106;7.164;2023-09-07T02:46:13;22.60;99.90
21193;DHT22;10754;51.106;7.164;2023-09-07T02:48:38;22.60;1.40
21193;DHT22;10754;51.106;7.164;2023-09-07T02:51:04;22.60;1.00
21193;DHT22;10754;51.106;7.164;2023-09-07T02:53:30;22.60;99.90
21193;DHT22;10754;51.106;7.164;2023-09-07T02:55:56;22.60;99.90
21193;DHT22;10754;51.106;7.164;2023-09-07T02:58:22;22.60;99.90
21193;DHT22;10754;51.106;7.164;2023-09-07T03:00:48;22.60;99.90
21193;DHT22;10754;51.106;7.164;2023-09-07T03:03:14;22.60;99.90
21193;DHT22;10754;51.106;7.164;2023-09-07T03:05:43;22.50;99.90
21193;DHT22;10754;51.106;7.164;2023-09-07T03:08:09;22.60;99.90
21193;DHT22;10754;51.106;7.164;2023-09-07T03:10:38;22.50;99.90
21193;DHT22;10754;51.106;7.164;2023-09-07T03:13:05;22.50;99.90
21193;DHT22;10754;51.106;7.164;2023-09-07T03:15:31;22.60;99.90
21193;DHT22;10754;51.106;7.164;2023-09-07T03:17:57;22.60;99.90
21193;DHT22;10754;51.106;7.164;2023-09-07T03:20:23;22.60;99.90
21193;DHT22;10754;51.106;7.164;2023-09-07T03:22:48;22.60;99.90
21193;DHT22;10754;51.106;7.164;2023-09-07T03:25:14;22.60;99.90
21193;DHT22;10754;51.106;7.164;2023-09-07T03:27:40;22.60;99.90
21193;DHT22;10754;51.106;7.164;2023-09-07T03:30:06;22.60;99.90
21193;DHT22;10754;51.106;7.164;2023-09-07T03:32:32;22.60;99.90
21193;DHT22;10754;51.106;7.164;2023-09-07T03:34:59;22.60;99.90
21193;DHT22;10754;51.106;7.164;2023-09-07T03:37:29;22.60;99.90
21193;DHT22;10754;51.106;7.164;2023-09-07T03:39:57;22.60;99.90
21193;DHT22;10754;51.106;7.164;2023-09-07T03:42:23;22.50;99.90
21193;DHT22;10754;51.106;7.164;2023-09-07T03:44:49;22.50;99.90
21193;DHT22;10754;51.106;7.164;2023-09-07T03:47:15;22.50;99.90
21193;DHT22;10754;51.106;7.164;2023-09-07T03:49:41;22.40;99.90
21193;DHT22;10754;51.106;7.164;2023-09-07T03:52:06;22.50;99.90
21193;DHT22;10754;51.106;7.164;2023-09-07T03:54:32;22.50;99.90
21193;DHT22;10754;51.106;7.164;2023-09-07T03:56:58;22.50;1.40
21193;DHT22;10754;51.106;7.164;2023-09-07T03:59:23;22.50;99.90
21193;DHT22;10754;51.106;7.164;2023-09-07T04:01:49;22.60;1.00
21193;DHT22;10754;51.106;7.164;2023-09-07T04:04:15;22.60;1.00
21193;DHT22;10754;51.106;7.164;2023-09-07T04:06:40;22.50;1.00
21193;DHT22;10754;51.106;7.164;2023-09-07T04:09:06;22.60;1.00
21193;DHT22;10754;51.106;7.164;2023-09-07T04:11:31;22.50;99.90
21193;DHT22;10754;51.106;7.164;2023-09-07T04:13:57;22.50;99.90
21193;DHT22;10754;51.106;7.164;2023-09-07T04:16:23;22.60;1.40
21193;DHT22;10754;51.106;7.164;2023-09-07T04:18:48;22.50;1.00
21193;DHT22;10754;51.106;7.164;2023-09-07T04:21:14;22.50;1.40
21193;DHT22;10754;51.106;7.164;2023-09-07T04:23:39;22.50;1.00
21193;DHT22;10754;51.106;7.164;2023-09-07T04:26:09;22.50;1.00
21193;DHT22;10754;51.106;7.164;2023-09-07T04:28:35;22.60;1.00
21193;DHT22;10754;51.106;7.164;2023-09-07T04:31:02;22.50;1.00
21193;DHT22;10754;51.106;7.164;2023-09-07T04:33:30;22.50;1.00
21193;DHT22;10754;51.106;7.164;2023-09-07T04:35:56;22.60;1.00
21193;DHT22;10754;51.106;7.164;2023-09-07T04:38:21;22.60;99.90
21193;DHT22;10754;51.106;7.164;2023-09-07T04:40:47;22.50;99.90
21193;DHT22;10754;51.106;7.164;2023-09-07T04:43:13;22.50;99.90
21193;DHT22;10754;51.106;7.164;2023-09-07T04:45:46;22.40;99.90
21193;DHT22;10754;51.106;7.164;2023-09-07T04:48:12;22.40;1.40
21193;DHT22;10754;51.106;7.164;2023-09-07T04:50:37;22.30;99.90
21193;DHT22;10754;51.106;7.164;2023-09-07T04:53:03;22.40;99.90
21193;DHT22;10754;51.106;7.164;2023-09-07T04:55:28;22.30;99.90
21193;DHT22;10754;51.106;7.164;2023-09-07T04:57:54;22.30;99.90
21193;DHT22;10754;51.106;7.164;2023-09-07T05:00:19;22.40;1.00
21193;DHT22;10754;51.106;7.164;2023-09-07T05:02:45;22.40;99.90
21193;DHT22;10754;51.106;7.164;2023-09-07T05:05:12;22.40;1.40
21193;DHT22;10754;51.106;7.164;2023-09-07T05:07:38;22.40;99.90
21193;DHT22;10754;51.106;7.164;2023-09-07T05:10:03;22.40;99.90
21193;DHT22;10754;51.106;7.164;2023-09-07T05:12:29;22.40;99.90
21193;DHT22;10754;51.106;7.164;2023-09-07T05:14:55;22.50;99.90
21193;DHT22;10754;51.106;7.164;2023-09-07T05:17:20;22.50;99.90
21193;DHT22;10754;51.106;7.164;2023-09-07T05:19:46;22.50;99.90
21193;DHT22;10754;51.106;7.164;2023-09-07T05:22:11;22.50;99.90
21193;DHT22;10754;51.106;7.164;2023-09-07T05:24:40;22.50;99.90
21193;DHT22;10754;51.106;7.164;2023-09-07T05:27:06;22.50;1.00
21193;DHT22;10754;51.106;7.164;2023-09-07T05:29:31;22.50;99.90
21193;DHT22;10754;51.106;7.164;2023-09-07T05:31:57;22.50;99.90
21193;DHT22;10754;51.106;7.164;2023-09-07T05:34:22;22.40;99.90
21193;DHT22;10754;51.106;7.164;2023-09-07T05:36:48;22.50;1.00
21193;DHT22;10754;51.106;7.164;2023-09-07T05:39:13;22.50;1.00
21193;DHT22;10754;51.106;7.164;2023-09-07T05:41:39;22.50;1.00
21193;DHT22;10754;51.106;7.164;2023-09-07T05:44:05;22.50;99.90
21193;DHT22;10754;51.106;7.164;2023-09-07T05:46:30;22.60;1.00
21193;DHT22;10754;51.106;7.164;2023-09-07T05:48:56;22.50;99.90
21193;DHT22;10754;51.106;7.164;2023-09-07T05:51:21;22.60;1.00
21193;DHT22;10754;51.106;7.164;2023-09-07T05:53:47;22.50;1.00
21193;DHT22;10754;51.106;7.164;2023-09-07T05:56:12;22.50;1.00
21193;DHT22;10754;51.106;7.164;2023-09-07T05:58:38;22.50;1.00
21193;DHT22;10754;51.106;7.164;2023-09-07T06:01:03;22.50;99.90
21193;DHT22;10754;51.106;7.164;2023-09-07T06:03:30;22.50;99.90
21193;DHT22;10754;51.106;7.164;2023-09-07T06:05:57;22.50;1.00
21193;DHT22;10754;51.106;7.164;2023-09-07T06:08:23;22.60;99.90
21193;DHT22;10754;51.106;7.164;2023-09-07T06:10:48;22.60;1.00
21193;DHT22;10754;51.106;7.164;2023-09-07T06:13:14;22.50;1.00
21193;DHT22;10754;51.106;7.164;2023-09-07T06:15:40;22.60;99.90
21193;DHT22;10754;51.106;7.164;2023-09-07T06:18:05;22.60;99.90
21193;DHT22;10754;51.106;7.164;2023-09-07T06:20:31;22.50;1.40
21193;DHT22;10754;51.106;7.164;2023-09-07T06:22:57;22.60;1.00
21193;DHT22;10754;51.106;7.164;2023-09-07T06:25:22;22.50;1.00
21193;DHT22;10754;51.106;7.164;2023-09-07T06:27:48;22.50;1.00
21193;DHT22;10754;51.106;7.164;2023-09-07T06:30:13;22.50;1.00
21193;DHT22;10754;51.106;7.164;2023-09-07T06:32:39;22.60;1.00
21193;DHT22;10754;51.106;7.164;2023-09-07T06:35:06;22.70;1.40
21193;DHT22;10754;51.106;7.164;2023-09-07T06:37:31;22.70;99.90
21193;DHT22;10754;51.106;7.164;2023-09-07T06:39:57;22.90;99.90
21193;DHT22;10754;51.106;7.164;2023-09-07T06:42:22;23.10;99.90
21193;DHT22;10754;51.106;7.164;2023-09-07T06:44:48;23.00;99.90
21193;DHT22;10754;51.106;7.164;2023-09-07T06:47:13;23.00;99.90
21193;DHT22;10754;51.106;7.164;2023-09-07T06:49:39;23.00;99.90
21193;DHT22;10754;51.106;7.164;2023-09-07T06:52:04;23.10;99.90
21193;DHT22;10754;51.106;7.164;2023-09-07T06:54:30;23.20;99.90
21193;DHT22;10754;51.106;7.164;2023-09-07T06:56:56;23.20;99.90
21193;DHT22;10754;51.106;7.164;2023-09-07T06:59:21;23.20;99.90
21193;DHT22;10754;51.106;7.164;2023-09-07T07:01:47;23.10;99.90
21193;DHT22;10754;51.106;7.164;2023-09-07T07:04:12;23.10;99.90
21193;DHT22;10754;51.106;7.164;2023-09-07T07:06:38;23.10;99.90
21193;DHT22;10754;51.106;7.164;2023-09-07T07:09:04;23.10;99.90
21193;DHT22;10754;51.106;7.164;2023-09-07T07:11:29;23.20;99.90
21193;DHT22;10754;51.106;7.164;2023-09-07T07:13:55;23.30;99.90
21193;DHT22;10754;51.106;7.164;2023-09-07T07:16:21;23.30;99.90
21193;DHT22;10754;51.106;7.164;2023-09-07T07:18:46;23.40;99.90
21193;DHT22;10754;51.106;7.164;2023-09-07T07:21:12;23.50;99.90
21193;DHT22;10754;51.106;7.164;2023-09-07T07:23:37;23.50;99.90
21193;DHT22;10754;51.106;7.164;2023-09-07T07:26:03;23.60;99.90
21193;DHT22;10754;51.106;7.164;2023-09-07T07:28:29;23.50;99.90
21193;DHT22;10754;51.106;7.164;2023-09-07T07:30:54;23.60;99.90
21193;DHT22;10754;51.106;7.164;2023-09-07T07:33:20;23.60;99.90
21193;DHT22;10754;51.106;7.164;2023-09-07T07:35:46;23.80;99.90
21193;DHT22;10754;51.106;7.164;2023-09-07T07:38:12;24.10;99.90
21193;DHT22;10754;51.106;7.164;2023-09-07T07:40:39;24.10;99.90
21193;DHT22;10754;51.106;7.164;2023-09-07T07:43:04;24.20;99.90
21193;DHT22;10754;51.106;7.164;2023-09-07T07:45:30;24.20;99.90
21193;DHT22;10754;51.106;7.164;2023-09-07T07:47:55;24.30;99.90
21193;DHT22;10754;51.106;7.164;2023-09-07T07:50:21;24.10;99.90
21193;DHT22;10754;51.106;7.164;2023-09-07T07:52:46;24.10;99.90
21193;DHT22;10754;51.106;7.164;2023-09-07T07:55:12;24.20;99.90
21193;DHT22;10754;51.106;7.164;2023-09-07T07:57:38;24.20;99.90
21193;DHT22;10754;51.106;7.164;2023-09-07T08:00:05;24.20;99.90
21193;DHT22;10754;51.106;7.164;2023-09-07T08:02:32;24.20;99.90
21193;DHT22;10754;51.106;7.164;2023-09-07T08:04:57;24.40;99.90
21193;DHT22;10754;51.106;7.164;2023-09-07T08:07:24;24.40;99.90
21193;DHT22;10754;51.106;7.164;2023-09-07T08:09:50;24.40;99.90
21193;DHT22;10754;51.106;7.164;2023-09-07T08:12:16;24.60;99.90
21193;DHT22;10754;51.106;7.164;2023-09-07T08:14:42;24.60;99.90
21193;DHT22;10754;51.106;7.164;2023-09-07T08:17:08;24.60;99.90
21193;DHT22;10754;51.106;7.164;2023-09-07T08:19:33;24.60;99.90
21193;DHT22;10754;51.106;7.164;2023-09-07T08:21:59;24.80;99.90
21193;DHT22;10754;51.106;7.164;2023-09-07T08:24:24;24.70;99.90
21193;DHT22;10754;51.106;7.164;2023-09-07T08:26:50;24.70;99.90
21193;DHT22;10754;51.106;7.164;2023-09-07T08:29:19;24.70;99.90
21193;DHT22;10754;51.106;7.164;2023-09-07T08:31:46;24.80;99.90
21193;DHT22;10754;51.106;7.164;2023-09-07T08:34:14;25.00;99.90
21193;DHT22;10754;51.106;7.164;2023-09-07T08:36:44;25.20;99.90
21193;DHT22;10754;51.106;7.164;2023-09-07T08:39:12;25.20;99.90
21193;DHT22;10754;51.106;7.164;2023-09-07T08:41:42;25.20;99.90
21193;DHT22;10754;51.106;7.164;2023-09-07T08:44:16;25.60;99.90
21193;DHT22;10754;51.106;7.164;2023-09-07T08:46:43;25.50;99.90
21193;DHT22;10754;51.106;7.164;2023-09-07T08:49:10;25.50;99.90
21193;DHT22;10754;51.106;7.164;2023-09-07T08:51:37;25.40;99.90
21193;DHT22;10754;51.106;7.164;2023-09-07T08:54:04;25.40;99.90
21193;DHT22;10754;51.106;7.164;2023-09-07T08:56:32;25.30;99.90
21193;DHT22;10754;51.106;7.164;2023-09-07T08:58:57;25.40;99.90
21193;DHT22;10754;51.106;7.164;2023-09-07T09:01:23;25.40;99.90
21193;DHT22;10754;51.106;7.164;2023-09-07T09:03:50;25.60;99.90
21193;DHT22;10754;51.106;7.164;2023-09-07T09:06:20;25.60;99.90
21193;DHT22;10754;51.106;7.164;2023-09-07T09:11:15;26.50;99.90
21193;DHT22;10754;51.106;7.164;2023-09-07T09:13:42;26.50;99.90
21193;DHT22;10754;51.106;7.164;2023-09-07T09:16:08;26.40;99.90
21193;DHT22;10754;51.106;7.164;2023-09-07T09:18:34;26.20;99.90
21193;DHT22;10754;51.106;7.164;2023-09-07T09:20:59;26.40;99.90
21193;DHT22;10754;51.106;7.164;2023-09-07T09:23:33;26.50;99.90
21193;DHT22;10754;51.106;7.164;2023-09-07T09:26:00;26.50;99.90
21193;DHT22;10754;51.106;7.164;2023-09-07T09:28:26;26.50;99.90
21193;DHT22;10754;51.106;7.164;2023-09-07T09:30:53;26.50;99.90
21193;DHT22;10754;51.106;7.164;2023-09-07T09:33:22;26.70;99.90
21193;DHT22;10754;51.106;7.164;2023-09-07T09:35:48;26.60;99.90
21193;DHT22;10754;51.106;7.164;2023-09-07T09:38:13;26.70;99.90
21193;DHT22;10754;51.106;7.164;2023-09-07T09:40:39;26.70;99.90
21193;DHT22;10754;51.106;7.164;2023-09-07T09:43:05;26.70;99.90
21193;DHT22;10754;51.106;7.164;2023-09-07T09:45:32;26.90;99.90
21193;DHT22;10754;51.106;7.164;2023-09-07T09:47:58;26.90;99.90
21193;DHT22;10754;51.106;7.164;2023-09-07T09:50:27;26.90;99.90
21193;DHT22;10754;51.106;7.164;2023-09-07T09:52:54;27.20;99.90
21193;DHT22;10754;51.106;7.164;2023-09-07T09:55:20;27.10;99.90
21193;DHT22;10754;51.106;7.164;2023-09-07T09:57:47;27.10;99.90
21193;DHT22;10754;51.106;7.164;2023-09-07T10:00:13;27.40;99.90
21193;DHT22;10754;51.106;7.164;2023-09-07T10:02:51;27.50;99.90
21193;DHT22;10754;51.106;7.164;2023-09-07T10:05:20;27.70;99.90
21193;DHT22;10754;51.106;7.164;2023-09-07T10:07:49;27.90;99.90
21193;DHT22;10754;51.106;7.164;2023-09-07T10:10:20;28.20;99.90
21193;DHT22;10754;51.106;7.164;2023-09-07T10:12:52;28.40;99.90
21193;DHT22;10754;51.106;7.164;2023-09-07T10:15:25;28.60;99.90
21193;DHT22;10754;51.106;7.164;2023-09-07T10:18:03;28.80;99.90
21193;DHT22;10754;51.106;7.164;2023-09-07T10:20:28;28.70;99.90
21193;DHT22;10754;51.106;7.164;2023-09-07T10:23:03;28.70;99.90
21193;DHT22;10754;51.106;7.164;2023-09-07T10:25:30;28.80;99.90
21193;DHT22;10754;51.106;7.164;2023-09-07T10:27:57;28.80;99.90
21193;DHT22;10754;51.106;7.164;2023-09-07T10:30:22;29.00;99.90
21193;DHT22;10754;51.106;7.164;2023-09-07T10:32:49;29.10;99.90
21193;DHT22;10754;51.106;7.164;2023-09-07T10:35:16;29.40;99.90
21193;DHT22;10754;51.106;7.164;2023-09-07T10:37:44;29.40;99.90
21193;DHT22;10754;51.106;7.164;2023-09-07T10:40:11;29.30;99.90
21193;DHT22;10754;51.106;7.164;2023-09-07T10:42:37;29.60;99.90
21193;DHT22;10754;51.106;7.164;2023-09-07T10:45:13;30.00;99.90
21193;DHT22;10754;51.106;7.164;2023-09-07T10:47:45;30.10;99.90
21193;DHT22;10754;51.106;7.164;2023-09-07T10:50:14;30.10;99.90
21193;DHT22;10754;51.106;7.164;2023-09-07T10:52:40;30.30;99.90
21193;DHT22;10754;51.106;7.164;2023-09-07T10:55:07;30.60;99.90
21193;DHT22;10754;51.106;7.164;2023-09-07T10:57:41;30.90;99.90
21193;DHT22;10754;51.106;7.164;2023-09-07T11:00:07;31.00;99.90
21193;DHT22;10754;51.106;7.164;2023-09-07T11:02:37;31.00;99.90
21193;DHT22;10754;51.106;7.164;2023-09-07T11:05:02;31.00;99.90
21193;DHT22;10754;51.106;7.164;2023-09-07T11:07:28;31.00;99.90
21193;DHT22;10754;51.106;7.164;2023-09-07T11:09:54;31.30;99.90
21193;DHT22;10754;51.106;7.164;2023-09-07T11:12:20;31.40;99.90
21193;DHT22;10754;51.106;7.164;2023-09-07T11:14:50;31.80;99.90
21193;DHT22;10754;51.106;7.164;2023-09-07T11:17:16;32.10;99.90
21193;DHT22;10754;51.106;7.164;2023-09-07T11:19:41;32.20;99.90
21193;DHT22;10754;51.106;7.164;2023-09-07T11:22:10;32.20;99.90
21193;DHT22;10754;51.106;7.164;2023-09-07T11:24:35;32.40;99.90
21193;DHT22;10754;51.106;7.164;2023-09-07T11:27:01;32.60;99.90
21193;DHT22;10754;51.106;7.164;2023-09-07T11:29:31;32.70;99.90
21193;DHT22;10754;51.106;7.164;2023-09-07T11:32:09;32.90;99.90
21193;DHT22;10754;51.106;7.164;2023-09-07T11:34:35;33.00;99.90
21193;DHT22;10754;51.106;7.164;2023-09-07T11:37:11;33.20;99.90
21193;DHT22;10754;51.106;7.164;2023-09-07T11:39:37;33.40;99.90
21193;DHT22;10754;51.106;7.164;2023-09-07T11:42:02;33.70;99.90
21193;DHT22;10754;51.106;7.164;2023-09-07T11:44:28;34.20;99.90
21193;DHT22;10754;51.106;7.164;2023-09-07T11:46:53;34.90;99.90
21193;DHT22;10754;51.106;7.164;2023-09-07T11:49:19;35.90;99.90
21193;DHT22;10754;51.106;7.164;2023-09-07T11:51:46;36.30;99.90
21193;DHT22;10754;51.106;7.164;2023-09-07T11:54:13;36.20;99.90
21193;DHT22;10754;51.106;7.164;2023-09-07T11:56:38;36.00;99.90
21193;DHT22;10754;51.106;7.164;2023-09-07T11:59:08;36.40;99.90
21193;DHT22;10754;51.106;7.164;2023-09-07T12:01:34;36.90;99.90
21193;DHT22;10754;51.106;7.164;2023-09-07T12:04:00;37.40;99.90
21193;DHT22;10754;51.106;7.164;2023-09-07T12:06:26;36.90;99.90
21193;DHT22;10754;51.106;7.164;2023-09-07T12:09:03;37.40;99.90
21193;DHT22;10754;51.106;7.164;2023-09-07T12:11:29;38.00;99.90
21193;DHT22;10754;51.106;7.164;2023-09-07T12:13:56;37.70;99.90
21193;DHT22;10754;51.106;7.164;2023-09-07T12:16:22;37.40;99.90
21193;DHT22;10754;51.106;7.164;2023-09-07T12:18:48;37.00;99.90
21193;DHT22;10754;51.106;7.164;2023-09-07T12:21:13;37.00;99.90
21193;DHT22;10754;51.106;7.164;2023-09-07T12:23:39;37.20;99.90
21193;DHT22;10754;51.106;7.164;2023-09-07T12:26:04;37.30;99.90
21193;DHT22;10754;51.106;7.164;2023-09-07T12:28:30;37.30;99.90
21193;DHT22;10754;51.106;7.164;2023-09-07T12:30:57;37.40;99.90
21193;DHT22;10754;51.106;7.164;2023-09-07T12:33:23;37.40;99.90
21193;DHT22;10754;51.106;7.164;2023-09-07T12:35:49;37.50;99.90
21193;DHT22;10754;51.106;7.164;2023-09-07T12:38:14;37.80;99.90
21193;DHT22;10754;51.106;7.164;2023-09-07T12:40:43;38.00;99.90
21193;DHT22;10754;51.106;7.164;2023-09-07T12:43:09;38.90;99.90
21193;DHT22;10754;51.106;7.164;2023-09-07T12:45:35;39.30;99.90
21193;DHT22;10754;51.106;7.164;2023-09-07T12:48:01;39.60;99.90
21193;DHT22;10754;51.106;7.164;2023-09-07T12:50:27;39.20;99.90
21193;DHT22;10754;51.106;7.164;2023-09-07T12:52:53;39.20;99.90
21193;DHT22;10754;51.106;7.164;2023-09-07T12:55:20;39.10;99.90
21193;DHT22;10754;51.106;7.164;2023-09-07T12:57:46;39.30;99.90
21193;DHT22;10754;51.106;7.164;2023-09-07T13:00:12;39.00;99.90
21193;DHT22;10754;51.106;7.164;2023-09-07T13:02:38;38.80;99.90
21193;DHT22;10754;51.106;7.164;2023-09-07T13:05:03;38.50;99.90
21193;DHT22;10754;51.106;7.164;2023-09-07T13:07:31;38.60;91.40
21193;DHT22;10754;51.106;7.164;2023-09-07T13:09:58;38.70;99.90
21193;DHT22;10754;51.106;7.164;2023-09-07T13:12:23;38.70;99.90
21193;DHT22;10754;51.106;7.164;2023-09-07T13:14:49;38.80;99.90
21193;DHT22;10754;51.106;7.164;2023-09-07T13:17:14;38.60;99.90
21193;DHT22;10754;51.106;7.164;2023-09-07T13:19:40;37.80;99.90
21193;DHT22;10754;51.106;7.164;2023-09-07T13:22:06;38.30;99.90
21193;DHT22;10754;51.106;7.164;2023-09-07T13:24:33;38.20;99.90
21193;DHT22;10754;51.106;7.164;2023-09-07T13:26:58;38.50;99.90
21193;DHT22;10754;51.106;7.164;2023-09-07T13:29:24;38.50;99.90
21193;DHT22;10754;51.106;7.164;2023-09-07T13:31:51;38.00;99.90
21193;DHT22;10754;51.106;7.164;2023-09-07T13:34:19;37.30;99.90
21193;DHT22;10754;51.106;7.164;2023-09-07T13:36:44;36.80;99.90
21193;DHT22;10754;51.106;7.164;2023-09-07T13:39:10;36.00;99.90
21193;DHT22;10754;51.106;7.164;2023-09-07T13:41:35;35.90;99.90
21193;DHT22;10754;51.106;7.164;2023-09-07T13:44:01;35.40;99.90
21193;DHT22;10754;51.106;7.164;2023-09-07T13:46:27;34.90;99.90
21193;DHT22;10754;51.106;7.164;2023-09-07T13:48:52;34.60;99.90
21193;DHT22;10754;51.106;7.164;2023-09-07T13:51:18;34.40;99.90
21193;DHT22;10754;51.106;7.164;2023-09-07T13:53:45;34.20;99.90
21193;DHT22;10754;51.106;7.164;2023-09-07T13:56:11;34.00;99.90
21193;DHT22;10754;51.106;7.164;2023-09-07T13:58:37;33.80;99.90
21193;DHT22;10754;51.106;7.164;2023-09-07T14:01:04;33.60;99.90
21193;DHT22;10754;51.106;7.164;2023-09-07T14:03:31;33.80;99.90
21193;DHT22;10754;51.106;7.164;2023-09-07T14:05:57;33.80;99.90
21193;DHT22;10754;51.106;7.164;2023-09-07T14:08:23;33.50;99.90
21193;DHT22;10754;51.106;7.164;2023-09-07T14:10:50;33.60;99.90
21193;DHT22;10754;51.106;7.164;2023-09-07T14:13:17;33.60;99.90
21193;DHT22;10754;51.106;7.164;2023-09-07T14:15:43;33.80;99.90
21193;DHT22;10754;51.106;7.164;2023-09-07T14:18:08;33.80;99.90
21193;DHT22;10754;51.106;7.164;2023-09-07T14:20:34;33.60;99.90
21193;DHT22;10754;51.106;7.164;2023-09-07T14:22:59;33.60;99.90
21193;DHT22;10754;51.106;7.164;2023-09-07T14:25:26;33.80;99.90
21193;DHT22;10754;51.106;7.164;2023-09-07T14:27:52;33.70;99.90
21193;DHT22;10754;51.106;7.164;2023-09-07T14:30:17;33.30;99.90
21193;DHT22;10754;51.106;7.164;2023-09-07T14:32:43;32.80;99.90
21193;DHT22;10754;51.106;7.164;2023-09-07T14:35:10;32.80;99.90
21193;DHT22;10754;51.106;7.164;2023-09-07T14:37:36;32.50;99.90
21193;DHT22;10754;51.106;7.164;2023-09-07T14:40:02;32.30;99.90
21193;DHT22;10754;51.106;7.164;2023-09-07T14:42:28;32.10;99.90
21193;DHT22;10754;51.106;7.164;2023-09-07T14:44:53;32.10;99.90
21193;DHT22;10754;51.106;7.164;2023-09-07T14:47:19;32.00;99.90
21193;DHT22;10754;51.106;7.164;2023-09-07T14:49:53;32.00;99.90
21193;DHT22;10754;51.106;7.164;2023-09-07T14:52:18;32.00;99.90
21193;DHT22;10754;51.106;7.164;2023-09-07T14:54:44;31.90;99.90
21193;DHT22;10754;51.106;7.164;2023-09-07T14:57:10;31.70;99.90
21193;DHT22;10754;51.106;7.164;2023-09-07T14:59:35;31.60;99.90
21193;DHT22;10754;51.106;7.164;2023-09-07T15:02:05;31.60;99.90
21193;DHT22;10754;51.106;7.164;2023-09-07T15:04:31;31.90;99.90
21193;DHT22;10754;51.106;7.164;2023-09-07T15:06:56;31.80;99.90
21193;DHT22;10754;51.106;7.164;2023-09-07T15:09:22;31.50;99.90
21193;DHT22;10754;51.106;7.164;2023-09-07T15:11:47;31.50;99.90
21193;DHT22;10754;51.106;7.164;2023-09-07T15:14:13;31.70;99.90
21193;DHT22;10754;51.106;7.164;2023-09-07T15:16:39;31.30;99.90
21193;DHT22;10754;51.106;7.164;2023-09-07T15:19:04;31.30;99.90
21193;DHT22;10754;51.106;7.164;2023-09-07T15:21:30;31.10;99.90
21193;DHT22;10754;51.106;7.164;2023-09-07T15:23:55;31.10;99.90
21193;DHT22;10754;51.106;7.164;2023-09-07T15:26:21;31.00;99.90
21193;DHT22;10754;51.106;7.164;2023-09-07T15:28:46;30.90;99.90